Time;durP1;ratioP1;P1;durP2;ratioP2;P2;SDS_P1;SDS_P2;PMS_P1;PMS_P2;Temp;Humidity;BMP_temperature;BMP_pressure;BME280_temperature;BME280_humidity;BME280_pressure;Samples;Min_cycle;Max_cycle;Signal;HPM_P1;HPM_P2
2024/03/20 00:01:36;;;;;;;0.70;0.45;;;;;;;26.81;38.06;99736.38;7396663;19;20048;-53
2024/03/20 00:04:04;;;;;;;0.88;0.40;;;;;;;26.52;38.43;99737.50;7395799;19;20019;-53
2024/03/20 00:06:33;;;;;;;1.00;0.98;;;;;;;26.63;37.94;99734.91;7397753;19;20006;-53
2024/03/20 00:09:01;;;;;;;1.52;0.85;;;;;;;26.32;38.37;99736.59;7396266;19;20010;-53
2024/03/20 00:11:27;;;;;;;1.40;0.75;;;;;;;26.33;38.33;99735.28;7395709;19;20022;-53
2024/03/20 00:13:53;;;;;;;1.40;0.60;;;;;;;26.30;38.73;99739.28;7395715;19;20035;-53
2024/03/20 00:16:20;;;;;;;0.70;0.65;;;;;;;26.79;38.15;99738.34;7394443;19;20014;-53
2024/03/20 00:18:46;;;;;;;2.25;0.98;;;;;;;26.85;38.31;99725.31;7395851;19;20007;-53
2024/03/20 00:21:12;;;;;;;0.28;0.28;;;;;;;26.93;38.15;99725.94;7395216;19;20011;-53
2024/03/20 00:23:38;;;;;;;3.45;1.13;;;;;;;26.69;38.55;99731.78;7395414;19;20466;-53
2024/03/20 00:26:06;;;;;;;2.53;0.88;;;;;;;26.30;39.43;99733.59;7395572;19;20027;-53
2024/03/20 00:28:32;;;;;;;0.30;0.30;;;;;;;26.35;39.08;99726.88;7394789;19;20470;-53
2024/03/20 00:30:58;;;;;;;1.42;0.52;;;;;;;26.29;39.18;99720.66;7394465;19;20450;-53
2024/03/20 00:33:24;;;;;;;0.50;0.50;;;;;;;26.16;39.52;99729.56;7394643;19;20390;-53
2024/03/20 00:35:50;;;;;;;0.60;0.60;;;;;;;26.07;39.71;99715.94;7393369;19;20011;-53
2024/03/20 00:38:16;;;;;;;9.93;0.73;;;;;;;26.04;39.62;99725.66;7398917;19;20070;-53
2024/03/20 00:40:42;;;;;;;0.85;0.63;;;;;;;26.29;39.72;99726.38;7394865;19;20011;-53
2024/03/20 00:43:08;;;;;;;4.68;1.00;;;;;;;25.90;40.14;99724.47;7394907;19;20015;-53
2024/03/20 00:45:34;;;;;;;2.88;0.60;;;;;;;26.27;40.06;99723.31;7394282;19;20078;-53
2024/03/20 00:48:01;;;;;;;1.58;0.70;;;;;;;26.44;39.42;99716.88;7398848;19;20022;-53
2024/03/20 00:50:27;;;;;;;1.60;0.30;;;;;;;26.52;39.39;99708.94;7395070;19;20010;-53
2024/03/20 00:52:53;;;;;;;8.88;1.13;;;;;;;26.17;39.98;99722.50;7394304;19;20054;-53
2024/03/20 00:55:19;;;;;;;1.13;0.77;;;;;;;26.38;39.74;99722.81;7394058;19;20035;-53
2024/03/20 00:57:46;;;;;;;2.05;0.43;;;;;;;26.45;40.12;99719.13;7397176;19;20043;-53
2024/03/20 01:00:13;;;;;;;1.40;0.70;;;;;;;26.03;40.35;99718.44;7394039;19;20105;-54
2024/03/20 01:02:39;;;;;;;1.35;0.50;;;;;;;26.04;40.77;99711.38;7393914;19;20512;-53
2024/03/20 01:05:05;;;;;;;0.73;0.32;;;;;;;25.95;40.54;99712.03;7394159;19;20010;-53
2024/03/20 01:07:31;;;;;;;1.58;1.48;;;;;;;26.24;40.12;99702.44;7397711;19;20027;-54
2024/03/20 01:09:57;;;;;;;2.80;0.93;;;;;;;26.63;40.02;99709.19;7394437;19;20034;-53
2024/03/20 01:12:23;;;;;;;0.93;0.60;;;;;;;26.57;39.93;99708.72;7394916;19;20502;-53
2024/03/20 01:14:49;;;;;;;1.65;0.68;;;;;;;26.43;40.08;99707.53;7392138;19;20007;-53
2024/03/20 01:17:15;;;;;;;9.13;0.80;;;;;;;26.64;40.30;99704.97;7392246;19;20502;-53
2024/03/20 01:19:42;;;;;;;0.47;0.47;;;;;;;25.69;41.27;99704.88;7393443;19;20018;-53
2024/03/20 01:22:09;;;;;;;2.05;0.75;;;;;;;25.29;42.25;99709.97;7392307;19;20030;-53
2024/03/20 01:24:36;;;;;;;5.43;0.63;;;;;;;24.67;43.97;99705.19;7393052;19;20014;-53
2024/03/20 01:27:02;;;;;;;2.00;0.20;;;;;;;24.45;44.92;99694.69;7394971;19;20018;-53
2024/03/20 01:29:28;;;;;;;7.40;0.65;;;;;;;24.60;45.02;99700.31;7392340;19;20097;-53
2024/03/20 01:31:54;;;;;;;0.68;0.30;;;;;;;23.88;46.92;99700.13;7393458;19;20093;-53
2024/03/20 01:34:21;;;;;;;0.90;0.45;;;;;;;23.79;47.81;99698.63;7393662;19;20010;-53
2024/03/20 01:36:47;;;;;;;2.15;0.95;;;;;;;23.89;48.17;99691.00;7392267;19;20011;-53
2024/03/20 01:39:13;;;;;;;1.30;0.32;;;;;;;23.80;49.16;99694.44;7394165;19;20022;-53
2024/03/20 01:41:42;;;;;;;2.28;0.45;;;;;;;24.08;48.20;99697.06;7393780;19;20344;-53
2024/03/20 01:44:11;;;;;;;0.50;0.35;;;;;;;24.42;47.92;99690.13;7393444;19;20015;-53
2024/03/20 01:46:37;;;;;;;0.30;0.30;;;;;;;24.74;46.28;99687.31;7393914;19;20750;-53
2024/03/20 01:49:04;;;;;;;0.50;0.50;;;;;;;25.06;46.25;99684.47;7392271;19;20011;-53
2024/03/20 01:51:32;;;;;;;1.63;0.95;;;;;;;25.33;45.63;99673.25;7390704;19;20021;-53
2024/03/20 01:54:00;;;;;;;7.13;0.80;;;;;;;25.50;45.00;99668.38;7394775;19;20029;-53
2024/03/20 01:56:27;;;;;;;0.20;0.20;;;;;;;25.25;45.71;99669.69;7391622;19;20332;-53
2024/03/20 01:58:54;;;;;;;0.65;0.40;;;;;;;24.96;46.14;99662.88;7391444;19;20471;-53
2024/03/20 02:01:21;;;;;;;1.20;0.38;;;;;;;24.88;46.70;99674.34;7391101;19;20343;-53
2024/03/20 02:03:47;;;;;;;0.55;0.55;;;;;;;25.11;46.07;99671.31;7392199;19;20013;-53
2024/03/20 02:06:27;;;;;;;0.57;0.57;;;;;;;24.71;47.47;99674.97;7391900;19;20362;-53
2024/03/20 02:08:55;;;;;;;2.13;0.20;;;;;;;24.82;46.98;99673.78;7393874;19;20011;-53
2024/03/20 02:11:24;;;;;;;1.00;0.63;;;;;;;26.68;44.08;99665.28;7391844;19;20486;-54
2024/03/20 02:13:52;;;;;;;1.75;0.63;;;;;;;26.82;42.84;99663.63;7393122;19;20023;-53
2024/03/20 02:16:19;;;;;;;10.52;0.57;;;;;;;25.92;43.82;99670.44;7390936;19;20028;-54
2024/03/20 02:18:47;;;;;;;0.68;0.65;;;;;;;25.18;45.61;99674.13;7391146;19;20098;-53
2024/03/20 02:21:17;;;;;;;0.60;0.40;;;;;;;25.24;45.38;99676.72;7393344;19;20488;-53
2024/03/20 02:23:44;;;;;;;2.50;0.27;;;;;;;25.92;44.70;99659.00;7392387;19;20010;-53
2024/03/20 02:26:10;;;;;;;3.30;0.20;;;;;;;25.80;44.48;99672.25;7392242;19;20015;-53
2024/03/20 02:28:38;;;;;;;1.48;0.73;;;;;;;25.91;44.44;99663.97;7391321;19;20014;-53
2024/03/20 02:31:06;;;;;;;1.20;0.65;;;;;;;26.57;43.35;99663.00;7390400;19;20021;-53
2024/03/20 02:33:33;;;;;;;1.60;1.05;;;;;;;26.50;43.04;99663.84;7393775;19;20043;-53
2024/03/20 02:35:59;;;;;;;2.15;0.52;;;;;;;26.41;43.16;99663.78;7391357;19;20366;-53
2024/03/20 02:38:29;;;;;;;18.02;1.27;;;;;;;26.39;43.71;99660.75;7391370;19;20392;-53
2024/03/20 02:40:56;;;;;;;0.10;0.10;;;;;;;26.38;43.67;99671.41;7398546;19;20053;-53
2024/03/20 02:43:23;;;;;;;0.15;0.10;;;;;;;26.41;43.54;99673.09;7398255;19;20006;-53
2024/03/20 02:48:36;;;;;;;0.43;0.43;;;;;;;26.00;44.37;99663.28;7395693;19;20007;-48
2024/03/20 02:51:03;;;;;;;2.28;0.95;;;;;;;26.44;43.68;99659.75;7395673;19;20014;-48
2024/03/20 02:53:29;;;;;;;3.22;0.63;;;;;;;26.50;43.37;99660.22;7397400;19;20462;-48
2024/03/20 02:55:55;;;;;;;0.30;0.30;;;;;;;26.04;44.03;99660.00;7395207;19;20011;-48
2024/03/20 02:58:21;;;;;;;0.43;0.10;;;;;;;26.40;44.13;99657.28;7401359;19;20070;-48
2024/03/20 03:00:47;;;;;;;1.77;0.75;;;;;;;26.45;44.11;99662.00;7397930;19;20037;-48
2024/03/20 03:03:14;;;;;;;2.10;1.45;;;;;;;26.63;44.03;99660.63;7396254;19;20501;-48
2024/03/20 03:05:40;;;;;;;2.00;0.40;;;;;;;26.65;43.43;99655.06;7398793;19;20062;-48
2024/03/20 03:08:06;;;;;;;2.25;0.60;;;;;;;25.72;44.98;99663.03;7398819;19;20018;-48
2024/03/20 03:10:32;;;;;;;0.57;0.57;;;;;;;25.88;45.19;99655.81;7401115;19;20362;-48
2024/03/20 03:13:00;;;;;;;1.33;0.28;;;;;;;26.19;44.45;99659.84;7397802;19;20010;-48
2024/03/20 03:15:26;;;;;;;2.17;0.57;;;;;;;26.33;43.91;99660.25;7395459;19;20018;-48
2024/03/20 03:17:54;;;;;;;0.40;0.30;;;;;;;27.14;42.98;99653.22;7395641;19;20007;-48
2024/03/20 03:20:23;;;;;;;4.88;1.00;;;;;;;27.97;41.87;99646.81;7398036;19;20011;-48
2024/03/20 03:22:50;;;;;;;2.10;0.55;;;;;;;27.40;41.95;99658.91;7401924;19;20434;-48
2024/03/20 03:25:16;;;;;;;5.00;0.40;;;;;;;28.40;40.44;99653.56;7397815;19;20070;-48
2024/03/20 03:27:42;;;;;;;0.32;0.30;;;;;;;27.40;42.06;99653.19;7397428;19;20010;-49
2024/03/20 03:30:09;;;;;;;0.70;0.32;;;;;;;27.83;41.76;99654.31;7395887;19;20070;-48
2024/03/20 03:32:36;;;;;;;10.52;0.68;;;;;;;27.05;42.75;99644.00;7399572;19;20018;-49
2024/03/20 03:35:04;;;;;;;0.85;0.50;;;;;;;27.48;42.10;99656.66;7396159;19;20080;-49
2024/03/20 03:37:30;;;;;;;0.80;0.57;;;;;;;27.16;42.18;99651.25;7397696;19;20014;-48
2024/03/20 03:39:56;;;;;;;4.03;1.00;;;;;;;26.87;43.06;99645.44;7397358;19;20010;-48
2024/03/20 03:42:23;;;;;;;2.60;0.77;;;;;;;26.91;42.75;99647.84;7397320;19;20010;-48
2024/03/20 03:44:49;;;;;;;0.52;0.43;;;;;;;26.70;42.95;99645.47;7396383;19;20006;-48
2024/03/20 03:47:15;;;;;;;2.17;0.75;;;;;;;27.45;42.33;99642.81;7396792;19;20031;-49
2024/03/20 03:49:41;;;;;;;0.50;0.43;;;;;;;27.03;42.61;99643.84;7396799;19;20017;-49
2024/03/20 03:52:07;;;;;;;0.80;0.68;;;;;;;28.27;41.17;99639.72;7398528;19;20014;-56
2024/03/20 03:54:34;;;;;;;2.10;0.88;;;;;;;28.45;40.25;99643.91;7401643;19;20025;-48
2024/03/20 03:57:02;;;;;;;1.48;0.55;;;;;;;28.38;40.52;99644.84;7394487;19;20487;-50
2024/03/20 03:59:29;;;;;;;1.25;0.47;;;;;;;28.35;40.14;99651.78;7396587;19;20454;-58
2024/03/20 04:01:55;;;;;;;3.00;0.60;;;;;;;28.55;40.47;99653.25;7395890;19;20011;-50
2024/03/20 04:04:21;;;;;;;6.32;1.20;;;;;;;29.07;39.40;99653.41;7395805;19;20011;-48
2024/03/20 04:06:48;;;;;;;6.22;0.98;;;;;;;29.93;38.34;99652.97;7399997;19;20010;-48
2024/03/20 04:09:14;;;;;;;2.88;1.50;;;;;;;30.06;37.88;99648.78;7395393;19;20027;-49
2024/03/20 04:11:40;;;;;;;3.53;0.98;;;;;;;29.52;38.30;99648.69;7396136;19;20070;-49
2024/03/20 04:14:07;;;;;;;0.65;0.50;;;;;;;29.66;38.85;99647.53;7396213;19;20014;-49
2024/03/20 04:16:34;;;;;;;1.70;1.23;;;;;;;29.23;38.76;99645.97;7398337;19;20006;-49
2024/03/20 04:19:01;;;;;;;0.50;0.50;;;;;;;29.11;38.96;99651.59;7396748;19;20069;-49
2024/03/20 04:21:27;;;;;;;2.78;0.95;;;;;;;28.78;39.72;99647.03;7395763;19;20505;-49
2024/03/20 04:23:53;;;;;;;1.48;0.70;;;;;;;28.99;39.41;99647.09;7396266;19;20082;-49
2024/03/20 04:26:19;;;;;;;2.42;1.08;;;;;;;29.07;38.92;99657.03;7398636;19;20017;-49
2024/03/20 04:28:48;;;;;;;5.68;1.80;;;;;;;29.19;38.71;99652.16;7396417;19;20026;-49
2024/03/20 04:31:14;;;;;;;2.28;0.93;;;;;;;29.19;38.80;99663.63;7396326;19;20030;-49
2024/03/20 04:33:41;;;;;;;5.53;0.98;;;;;;;28.95;39.20;99666.91;7395396;19;20086;-49
2024/03/20 04:36:09;;;;;;;3.08;1.25;;;;;;;30.16;37.48;99653.06;7395818;19;20023;-49
2024/03/20 04:38:37;;;;;;;0.85;0.63;;;;;;;28.37;39.47;99658.41;7396137;19;20006;-49
2024/03/20 04:41:04;;;;;;;3.70;0.80;;;;;;;28.11;40.63;99656.44;7396106;19;20037;-49
2024/03/20 04:43:33;;;;;;;0.68;0.30;;;;;;;27.95;40.20;99660.97;7395568;19;20019;-49
2024/03/20 04:45:59;;;;;;;1.30;1.05;;;;;;;28.48;39.95;99665.63;7395222;19;20042;-49
2024/03/20 04:48:26;;;;;;;1.70;1.00;;;;;;;28.56;39.87;99665.47;7395782;19;20014;-48
2024/03/20 04:50:53;;;;;;;7.57;0.93;;;;;;;27.95;40.75;99660.19;7394264;19;20014;-49
2024/03/20 04:53:19;;;;;;;1.35;0.57;;;;;;;28.12;40.83;99657.97;7394815;19;20007;-49
2024/03/20 04:55:46;;;;;;;2.78;1.50;;;;;;;28.76;39.93;99666.97;7394726;19;20074;-49
2024/03/20 04:58:12;;;;;;;4.03;0.93;;;;;;;29.19;39.11;99669.38;7397384;19;20478;-49
2024/03/20 05:00:38;;;;;;;2.72;1.27;;;;;;;29.34;39.00;99674.00;7394807;19;20054;-49
2024/03/20 05:03:04;;;;;;;1.13;0.63;;;;;;;29.31;38.86;99669.50;7391773;19;20006;-49
2024/03/20 05:05:30;;;;;;;7.32;1.05;;;;;;;29.93;38.16;99665.19;7393067;19;20591;-49
2024/03/20 05:07:57;;;;;;;5.78;1.30;;;;;;;30.09;38.09;99671.28;7393148;19;20014;-49
2024/03/20 05:10:23;;;;;;;3.85;1.75;;;;;;;30.00;38.07;99674.97;7396005;19;20027;-49
2024/03/20 05:12:49;;;;;;;2.38;0.95;;;;;;;29.87;37.99;99664.78;7394163;19;20082;-49
2024/03/20 05:15:15;;;;;;;1.23;1.00;;;;;;;29.84;38.06;99671.03;7394378;19;20015;-49
2024/03/20 05:17:41;;;;;;;2.63;0.68;;;;;;;29.65;38.25;99679.75;7394674;19;20010;-49
2024/03/20 05:20:09;;;;;;;1.15;0.38;;;;;;;29.85;37.94;99675.38;7393192;19;20014;-49
2024/03/20 05:22:35;;;;;;;5.57;1.15;;;;;;;29.39;38.17;99684.38;7396963;19;20465;-49
2024/03/20 05:25:02;;;;;;;3.30;1.15;;;;;;;29.49;38.22;99690.84;7394563;19;20010;-49
2024/03/20 05:27:28;;;;;;;4.13;0.70;;;;;;;29.51;38.60;99690.22;7394010;19;20031;-49
2024/03/20 05:29:54;;;;;;;1.67;0.60;;;;;;;30.22;37.93;99690.06;7393819;19;20339;-50
2024/03/20 05:32:20;;;;;;;3.25;1.25;;;;;;;31.12;36.47;99698.88;7393360;19;20354;-50
2024/03/20 05:34:46;;;;;;;1.63;0.80;;;;;;;31.06;36.62;99692.75;7395025;19;20466;-51
2024/03/20 05:37:13;;;;;;;4.78;1.42;;;;;;;30.95;36.87;99696.34;7391585;19;20010;-50
2024/03/20 05:39:39;;;;;;;0.90;0.80;;;;;;;30.73;36.85;99691.28;7391722;19;20396;-49
2024/03/20 05:42:05;;;;;;;3.60;1.23;;;;;;;31.61;35.86;99690.41;7392372;19;20014;-49
2024/03/20 05:44:31;;;;;;;0.90;0.52;;;;;;;31.80;35.49;99698.75;7393317;19;20007;-49
2024/03/20 05:46:57;;;;;;;1.30;0.63;;;;;;;31.77;35.47;99697.16;7395297;19;20003;-49
2024/03/20 05:49:23;;;;;;;1.17;0.70;;;;;;;32.28;34.73;99693.03;7393688;19;20021;-49
2024/03/20 05:51:50;;;;;;;2.28;1.23;;;;;;;31.89;35.05;99697.88;7395222;19;20376;-49
2024/03/20 05:54:17;;;;;;;8.02;0.85;;;;;;;32.45;34.32;99701.22;7396679;19;20031;-49
2024/03/20 05:56:45;;;;;;;1.50;0.70;;;;;;;31.38;35.43;99696.91;7392939;19;20077;-49
2024/03/20 05:59:12;;;;;;;9.35;1.67;;;;;;;31.51;35.54;99699.19;7391567;19;20018;-49
2024/03/20 06:01:38;;;;;;;4.60;1.50;;;;;;;31.60;35.70;99700.44;7392766;19;20471;-49
2024/03/20 06:04:07;;;;;;;0.70;0.60;;;;;;;32.04;34.56;99703.13;7392814;19;20022;-49
2024/03/20 06:06:33;;;;;;;2.97;1.20;;;;;;;31.87;34.80;99704.28;7393119;19;20026;-49
2024/03/20 06:08:59;;;;;;;0.93;0.75;;;;;;;31.79;35.06;99703.78;7392583;19;20011;-49
2024/03/20 06:11:25;;;;;;;5.93;1.42;;;;;;;31.75;35.12;99703.53;7392435;19;20033;-49
2024/03/20 06:13:53;;;;;;;2.67;1.17;;;;;;;31.99;34.64;99698.50;7392879;19;20007;-49
2024/03/20 06:16:19;;;;;;;2.75;1.05;;;;;;;31.56;35.24;99706.69;7397037;19;20035;-49
2024/03/20 06:18:45;;;;;;;2.28;1.02;;;;;;;31.72;35.01;99701.91;7400601;19;20351;-49
2024/03/20 06:21:12;;;;;;;3.53;1.15;;;;;;;32.16;34.49;99695.22;7399394;19;20021;-49
2024/03/20 06:23:38;;;;;;;3.55;0.98;;;;;;;31.64;34.71;99706.44;7400048;19;20020;-49
2024/03/20 06:26:04;;;;;;;2.00;1.40;;;;;;;31.59;35.08;99704.69;7400470;19;20462;-49
2024/03/20 06:28:30;;;;;;;5.75;1.67;;;;;;;31.49;35.30;99709.81;7403805;19;20029;-49
2024/03/20 06:30:57;;;;;;;2.65;0.95;;;;;;;31.55;35.59;99715.97;7398840;19;20007;-49
2024/03/20 06:33:24;;;;;;;4.97;1.30;;;;;;;31.58;35.25;99714.72;7398962;19;20011;-49
2024/03/20 06:35:50;;;;;;;4.20;1.00;;;;;;;31.64;35.25;99712.19;7398852;19;20019;-49
2024/03/20 06:38:19;;;;;;;1.42;0.73;;;;;;;32.58;34.14;99717.13;7403324;19;20010;-49
2024/03/20 06:40:46;;;;;;;0.90;0.65;;;;;;;32.94;33.90;99718.44;7399832;19;20010;-49
2024/03/20 06:43:13;;;;;;;0.50;0.43;;;;;;;33.52;33.38;99718.81;7397698;19;20031;-49
2024/03/20 06:45:52;;;;;;;9.05;1.98;;;;;;;33.84;33.08;99722.66;7399226;19;20015;-50
2024/03/20 06:48:18;;;;;;;6.18;1.60;;;;;;;33.63;33.23;99730.25;7401213;19;20039;-49
2024/03/20 06:50:46;;;;;;;5.05;1.05;;;;;;;34.37;32.57;99731.94;7399122;19;20010;-49
2024/03/20 06:53:14;;;;;;;2.83;0.68;;;;;;;34.36;32.53;99731.19;7402139;19;20159;-51
2024/03/20 06:55:45;;;;;;;1.13;0.88;;;;;;;33.88;32.60;99740.97;7398233;19;20041;-49
2024/03/20 06:58:11;;;;;;;12.35;1.20;;;;;;;33.58;33.24;99745.88;7402416;19;20015;-49
2024/03/20 07:00:38;;;;;;;6.25;0.80;;;;;;;33.11;33.55;99738.19;7396062;19;20381;-49
2024/03/20 07:03:04;;;;;;;3.28;0.88;;;;;;;33.24;33.69;99743.25;7398615;19;20801;-49
2024/03/20 07:05:31;;;;;;;2.38;1.40;;;;;;;33.31;33.23;99747.97;7398650;19;20015;-49
2024/03/20 07:07:57;;;;;;;13.95;1.73;;;;;;;33.28;33.62;99747.09;7402205;19;20018;-50
2024/03/20 07:10:23;;;;;;;8.48;2.65;;;;;;;33.16;33.68;99742.81;7398321;19;20070;-49
2024/03/20 07:12:49;;;;;;;8.95;2.70;;;;;;;32.86;34.14;99751.22;7398470;19;20022;-50
2024/03/20 07:15:16;;;;;;;11.68;2.08;;;;;;;33.13;33.94;99752.72;7397565;19;20086;-50
2024/03/20 07:17:42;;;;;;;4.55;1.08;;;;;;;32.14;35.16;99752.72;7400398;19;20011;-49
2024/03/20 07:20:09;;;;;;;3.85;1.02;;;;;;;31.90;35.49;99765.66;7398509;19;20363;-49
2024/03/20 07:22:36;;;;;;;3.85;1.75;;;;;;;31.75;35.84;99769.78;7402055;19;20066;-49
2024/03/20 07:25:03;;;;;;;5.47;1.25;;;;;;;31.83;35.80;99766.66;7398448;19;20014;-50
2024/03/20 07:27:29;;;;;;;1.80;0.68;;;;;;;32.62;35.26;99764.25;7398377;19;20018;-49
2024/03/20 07:29:55;;;;;;;1.65;0.70;;;;;;;33.78;34.04;99759.91;7397372;19;20014;-49
2024/03/20 07:32:21;;;;;;;5.53;1.27;;;;;;;34.47;33.36;99761.34;7397867;19;20015;-49
2024/03/20 07:34:47;;;;;;;2.13;0.85;;;;;;;33.58;34.18;99756.69;7398081;19;20014;-49
2024/03/20 07:37:13;;;;;;;1.75;1.30;;;;;;;33.89;34.33;99759.81;7397781;19;20007;-49
2024/03/20 07:39:40;;;;;;;2.92;1.17;;;;;;;34.70;33.69;99761.09;7397125;19;20509;-49
2024/03/20 07:42:06;;;;;;;2.80;0.65;;;;;;;34.66;33.34;99769.56;7395512;19;20015;-49
2024/03/20 07:44:32;;;;;;;6.13;1.73;;;;;;;34.49;33.88;99761.44;7398001;19;20442;-49
2024/03/20 07:47:00;;;;;;;3.05;0.90;;;;;;;34.45;33.73;99758.34;7397768;19;20021;-49
2024/03/20 07:49:26;;;;;;;1.67;0.70;;;;;;;34.59;33.74;99764.91;7396872;19;20094;-49
2024/03/20 07:51:54;;;;;;;1.40;1.08;;;;;;;35.25;33.17;99773.94;7397742;19;20016;-49
2024/03/20 07:54:26;;;;;;;3.85;1.00;;;;;;;35.40;32.79;99770.31;7399588;19;20011;-49
2024/03/20 07:56:56;;;;;;;5.00;1.25;;;;;;;35.28;32.97;99775.53;7394870;19;20015;-49
2024/03/20 07:59:23;;;;;;;3.03;0.88;;;;;;;35.33;33.33;99773.56;7400779;19;20010;-49
2024/03/20 08:01:50;;;;;;;4.63;1.27;;;;;;;35.42;33.27;99773.31;7397012;19;20013;-50
2024/03/20 08:04:16;;;;;;;1.98;0.70;;;;;;;35.73;32.84;99784.94;7396730;19;20014;-49
2024/03/20 08:06:42;;;;;;;5.82;1.02;;;;;;;36.74;32.21;99789.38;7396741;19;20488;-49
2024/03/20 08:09:09;;;;;;;0.90;0.65;;;;;;;37.61;31.63;99778.34;7396491;19;20014;-49
2024/03/20 08:11:38;;;;;;;1.13;0.80;;;;;;;38.19;30.98;99786.34;7400734;19;20754;-49
2024/03/20 08:14:10;;;;;;;2.85;0.32;;;;;;;38.21;30.61;99779.84;7396337;19;20046;-49
2024/03/20 08:16:37;;;;;;;1.95;0.68;;;;;;;37.57;30.91;99790.59;7395007;19;20034;-49
2024/03/20 08:19:06;;;;;;;2.65;0.68;;;;;;;37.51;30.89;99787.41;7395033;19;20007;-49
2024/03/20 08:21:36;;;;;;;1.45;0.68;;;;;;;36.87;31.27;99797.19;7396632;19;20022;-50
2024/03/20 08:24:04;;;;;;;2.45;1.25;;;;;;;36.26;31.92;99798.88;7395519;19;20011;-50
2024/03/20 08:26:31;;;;;;;0.68;0.45;;;;;;;36.24;32.32;99802.44;7398251;19;20015;-50
2024/03/20 08:28:57;;;;;;;2.60;0.90;;;;;;;37.03;31.10;99803.69;7395721;19;20343;-50
2024/03/20 08:31:23;;;;;;;4.45;0.93;;;;;;;36.62;31.75;99800.50;7395455;19;20010;-50
2024/03/20 08:33:49;;;;;;;2.83;0.75;;;;;;;35.92;32.54;99798.09;7395409;19;20010;-50
2024/03/20 08:36:15;;;;;;;2.10;0.52;;;;;;;35.90;32.17;99798.00;7394058;19;20010;-50
2024/03/20 08:38:45;;;;;;;0.68;0.10;;;;;;;34.64;33.54;99807.09;7394097;19;20466;-49
2024/03/20 08:41:12;;;;;;;4.32;0.60;;;;;;;33.99;34.43;99811.59;7395690;19;20018;-50
2024/03/20 08:43:39;;;;;;;1.80;0.70;;;;;;;34.51;33.91;99819.44;7395060;19;20011;-50
2024/03/20 08:46:08;;;;;;;2.42;0.55;;;;;;;35.73;33.17;99819.72;7395953;19;20010;-50
2024/03/20 08:48:35;;;;;;;2.35;0.85;;;;;;;36.01;32.25;99813.72;7395373;19;20014;-50
2024/03/20 08:51:02;;;;;;;1.92;0.70;;;;;;;35.90;32.45;99817.53;7395330;19;20022;-49
2024/03/20 08:53:30;;;;;;;1.75;0.95;;;;;;;36.12;32.50;99818.56;7393728;19;20482;-49
2024/03/20 08:55:57;;;;;;;1.42;0.70;;;;;;;35.50;32.90;99820.06;7394531;19;20038;-50
2024/03/20 08:58:23;;;;;;;4.10;1.20;;;;;;;34.27;34.21;99822.56;7394769;19;20499;-49
2024/03/20 09:00:49;;;;;;;2.58;1.15;;;;;;;33.79;34.94;99825.72;7395735;19;20018;-49
2024/03/20 09:03:15;;;;;;;1.20;0.68;;;;;;;33.89;34.49;99826.28;7394837;19;20033;-50
2024/03/20 09:05:41;;;;;;;8.90;1.27;;;;;;;34.33;34.23;99834.44;7394734;19;20021;-50
2024/03/20 09:08:08;;;;;;;2.05;0.95;;;;;;;34.21;34.40;99830.91;7394378;19;20010;-48
2024/03/20 09:10:36;;;;;;;1.67;0.57;;;;;;;34.54;34.38;99838.41;7394504;19;20014;-47
2024/03/20 09:13:02;;;;;;;1.50;0.85;;;;;;;34.59;34.31;99840.13;7394253;19;20014;-48
2024/03/20 09:15:28;;;;;;;1.42;0.60;;;;;;;34.53;34.56;99836.91;7394593;19;20033;-48
2024/03/20 09:17:54;;;;;;;2.60;0.63;;;;;;;34.37;34.90;99833.91;7394816;19;20014;-48
2024/03/20 09:20:20;;;;;;;1.52;0.55;;;;;;;34.44;34.91;99835.69;7398516;19;20010;-48
2024/03/20 09:22:46;;;;;;;1.42;1.33;;;;;;;34.23;34.91;99833.16;7397428;19;20501;-48
2024/03/20 09:25:13;;;;;;;0.95;0.75;;;;;;;33.98;34.78;99836.88;7394689;19;20481;-48
2024/03/20 09:27:40;;;;;;;4.68;0.70;;;;;;;34.52;34.79;99844.84;7394375;19;20019;-48
2024/03/20 09:30:08;;;;;;;2.85;0.55;;;;;;;34.57;34.92;99842.88;7392492;19;20018;-49
2024/03/20 09:32:35;;;;;;;1.23;0.45;;;;;;;35.14;34.29;99838.56;7398818;19;20330;-48
2024/03/20 09:35:01;;;;;;;0.80;0.47;;;;;;;35.52;33.80;99834.63;7394150;19;20014;-49
2024/03/20 09:37:29;;;;;;;1.13;0.50;;;;;;;35.64;33.83;99843.16;7392778;19;20491;-49
2024/03/20 09:39:59;;;;;;;0.75;0.75;;;;;;;36.45;32.86;99845.47;7393551;19;20015;-49
2024/03/20 09:42:25;;;;;;;2.25;0.60;;;;;;;36.60;32.77;99838.13;7393188;19;20074;-48
2024/03/20 09:44:51;;;;;;;3.00;0.90;;;;;;;36.51;32.84;99845.00;7393794;19;20014;-48
2024/03/20 09:47:17;;;;;;;4.28;1.10;;;;;;;36.71;32.42;99848.75;7392632;19;20022;-49
2024/03/20 09:49:44;;;;;;;0.57;0.40;;;;;;;36.74;32.52;99847.44;7392803;19;20014;-48
2024/03/20 09:52:11;;;;;;;0.10;0.10;;;;;;;36.57;32.64;99845.25;7396283;19;20086;-48
2024/03/20 09:54:37;;;;;;;1.63;0.35;;;;;;;37.16;31.94;99843.44;7397316;19;20007;-48
2024/03/20 09:57:05;;;;;;;0.68;0.68;;;;;;;37.83;31.27;99840.28;7391755;19;20011;-48
2024/03/20 09:59:31;;;;;;;0.90;0.22;;;;;;;38.18;31.32;99839.41;7394051;19;20023;-48
2024/03/20 10:01:57;;;;;;;6.75;1.25;;;;;;;39.26;29.92;99839.53;7392229;19;20044;-48
2024/03/20 10:04:28;;;;;;;2.78;1.35;;;;;;;39.48;29.05;99842.41;7392933;19;20477;-48
2024/03/20 10:06:55;;;;;;;7.93;1.95;;;;;;;39.84;29.19;99847.22;7393760;19;20011;-48
2024/03/20 10:09:27;;;;;;;5.28;1.10;;;;;;;40.44;28.16;99851.16;7393068;19;20350;-48
2024/03/20 10:11:53;;;;;;;6.13;0.52;;;;;;;40.78;27.37;99842.56;7392564;19;20006;-48
2024/03/20 10:14:22;;;;;;;2.53;0.90;;;;;;;40.27;27.77;99845.53;7393029;19;20014;-48
2024/03/20 10:16:48;;;;;;;0.82;0.60;;;;;;;39.65;28.28;99853.19;7395341;19;20021;-49
2024/03/20 10:19:14;;;;;;;3.80;1.90;;;;;;;38.97;28.78;99858.25;7393716;19;20010;-48
2024/03/20 10:21:43;;;;;;;0.73;0.73;;;;;;;38.70;28.99;99855.13;7392765;19;20458;-48
2024/03/20 10:24:13;;;;;;;6.80;0.95;;;;;;;39.57;28.47;99858.78;7391387;19;20010;-49
2024/03/20 10:26:40;;;;;;;3.53;0.60;;;;;;;39.82;28.22;99855.91;7395221;19;20489;-48
2024/03/20 10:29:11;;;;;;;0.77;0.73;;;;;;;38.14;29.40;99857.44;7392933;19;20059;-48
2024/03/20 10:31:39;;;;;;;2.88;0.57;;;;;;;37.46;30.09;99860.59;7392577;19;20066;-48
2024/03/20 10:34:07;;;;;;;0.85;0.50;;;;;;;38.59;29.50;99854.00;7392382;19;20015;-49
2024/03/20 10:36:34;;;;;;;3.40;0.40;;;;;;;38.64;29.63;99850.53;7391258;19;20658;-49
2024/03/20 10:39:03;;;;;;;0.20;0.20;;;;;;;37.01;31.26;99869.66;7392220;19;20037;-49
2024/03/20 10:41:31;;;;;;;1.67;0.82;;;;;;;37.01;30.98;99867.50;7392058;19;20033;-49
2024/03/20 10:43:58;;;;;;;2.55;1.13;;;;;;;37.12;31.06;99869.38;7392878;19;20838;-48
2024/03/20 10:46:25;;;;;;;1.55;0.63;;;;;;;37.28;31.07;99868.56;7393146;19;20011;-49
2024/03/20 10:48:54;;;;;;;3.60;1.05;;;;;;;37.39;31.15;99870.47;7391709;19;20627;-49
2024/03/20 10:51:20;;;;;;;6.82;1.23;;;;;;;37.19;31.49;99862.41;7392431;19;20474;-49
2024/03/20 10:53:46;;;;;;;7.80;2.42;;;;;;;37.18;31.28;99869.66;7394113;19;20397;-48
2024/03/20 10:56:19;;;;;;;5.97;1.05;;;;;;;36.20;31.67;99865.34;7390398;19;20066;-49
2024/03/20 10:59:01;;;;;;;3.65;1.20;;;;;;;37.40;31.09;99863.28;7390676;19;20088;-49
2024/03/20 11:01:27;;;;;;;5.35;1.08;;;;;;;36.41;31.99;99873.53;7393629;19;20010;-48
2024/03/20 11:03:56;;;;;;;2.35;1.15;;;;;;;36.54;31.79;99869.78;7399118;19;20027;-49
2024/03/20 11:06:25;;;;;;;3.40;1.67;;;;;;;37.94;30.77;99872.00;7399025;19;20014;-48
2024/03/20 11:08:53;;;;;;;2.30;1.02;;;;;;;38.30;30.79;99874.78;7398978;19;20074;-49
2024/03/20 11:11:19;;;;;;;4.78;2.08;;;;;;;39.27;29.88;99873.09;7399072;19;20014;-48
2024/03/20 11:13:48;;;;;;;2.90;0.93;;;;;;;39.56;28.91;99875.50;7398412;19;20331;-48
2024/03/20 11:16:21;;;;;;;6.50;1.75;;;;;;;39.21;29.77;99869.97;7397123;19;20028;-49
2024/03/20 11:19:06;;;;;;;4.40;1.17;;;;;;;39.62;29.27;99877.84;7398996;19;20070;-48
2024/03/20 11:21:32;;;;;;;3.33;0.63;;;;;;;39.09;29.14;99875.38;7398372;19;20017;-48
2024/03/20 11:24:05;;;;;;;7.40;1.60;;;;;;;39.00;29.24;99877.28;7398898;19;20066;-48
2024/03/20 11:26:34;;;;;;;3.00;1.05;;;;;;;39.14;29.27;99885.75;7397317;19;20015;-48
2024/03/20 11:29:02;;;;;;;3.17;0.80;;;;;;;38.80;29.72;99872.94;7401792;19;20007;-49
2024/03/20 11:31:29;;;;;;;1.20;0.40;;;;;;;38.11;30.05;99869.69;7398749;19;20022;-49
2024/03/20 11:33:55;;;;;;;2.08;0.98;;;;;;;38.39;30.09;99876.56;7397446;19;20429;-49
2024/03/20 11:36:21;;;;;;;3.15;1.00;;;;;;;38.26;30.23;99878.28;7396993;19;20534;-48